sensor_id;sensor_type;location;lat;lon;timestamp;P1;durP1;ratioP1;P2;durP2;ratioP2
15608;SDS011;64278;45.642;13.756;2023-04-07T00:00:54;22.00;;;19.75;;
15608;SDS011;64278;45.642;13.756;2023-04-07T00:03:20;23.23;;;20.98;;
15608;SDS011;64278;45.642;13.756;2023-04-07T00:05:46;23.48;;;20.60;;
15608;SDS011;64278;45.642;13.756;2023-04-07T00:08:12;22.15;;;19.55;;
15608;SDS011;64278;45.642;13.756;2023-04-07T00:10:37;21.95;;;19.65;;
15608;SDS011;64278;45.642;13.756;2023-04-07T00:13:03;22.35;;;19.95;;
15608;SDS011;64278;45.642;13.756;2023-04-07T00:15:29;22.33;;;20.13;;
15608;SDS011;64278;45.642;13.756;2023-04-07T00:17:55;23.02;;;20.48;;
15608;SDS011;64278;45.642;13.756;2023-04-07T00:20:21;19.90;;;17.80;;
15608;SDS011;64278;45.642;13.756;2023-04-07T00:22:47;21.65;;;19.45;;
15608;SDS011;64278;45.642;13.756;2023-04-07T00:25:12;20.55;;;18.45;;
15608;SDS011;64278;45.642;13.756;2023-04-07T00:27:38;19.80;;;17.85;;
15608;SDS011;64278;45.642;13.756;2023-04-07T00:30:04;20.33;;;18.17;;
15608;SDS011;64278;45.642;13.756;2023-04-07T00:32:31;18.65;;;16.88;;
15608;SDS011;64278;45.642;13.756;2023-04-07T00:34:56;17.90;;;16.10;;
15608;SDS011;64278;45.642;13.756;2023-04-07T00:37:22;18.20;;;16.25;;
15608;SDS011;64278;45.642;13.756;2023-04-07T00:39:49;18.90;;;16.98;;
15608;SDS011;64278;45.642;13.756;2023-04-07T00:42:16;17.30;;;15.60;;
15608;SDS011;64278;45.642;13.756;2023-04-07T00:44:42;17.40;;;15.73;;
15608;SDS011;64278;45.642;13.756;2023-04-07T00:47:08;17.42;;;15.73;;
15608;SDS011;64278;45.642;13.756;2023-04-07T00:49:35;17.77;;;15.88;;
15608;SDS011;64278;45.642;13.756;2023-04-07T00:52:02;17.35;;;15.65;;
15608;SDS011;64278;45.642;13.756;2023-04-07T00:54:29;17.13;;;15.40;;
15608;SDS011;64278;45.642;13.756;2023-04-07T00:56:55;17.50;;;15.68;;
15608;SDS011;64278;45.642;13.756;2023-04-07T00:59:22;16.73;;;15.05;;
15608;SDS011;64278;45.642;13.756;2023-04-07T01:01:58;15.95;;;14.38;;
15608;SDS011;64278;45.642;13.756;2023-04-07T01:04:34;16.92;;;14.48;;
15608;SDS011;64278;45.642;13.756;2023-04-07T01:07:05;16.42;;;14.38;;
15608;SDS011;64278;45.642;13.756;2023-04-07T01:09:36;14.50;;;13.00;;
15608;SDS011;64278;45.642;13.756;2023-04-07T01:14:39;15.23;;;13.63;;
15608;SDS011;64278;45.642;13.756;2023-04-07T01:17:11;13.65;;;12.43;;
15608;SDS011;64278;45.642;13.756;2023-04-07T01:19:39;14.52;;;13.07;;
15608;SDS011;64278;45.642;13.756;2023-04-07T01:22:12;13.73;;;12.43;;
15608;SDS011;64278;45.642;13.756;2023-04-07T01:27:37;13.70;;;12.30;;
15608;SDS011;64278;45.642;13.756;2023-04-07T01:30:12;13.50;;;12.10;;
15608;SDS011;64278;45.642;13.756;2023-04-07T01:32:41;13.18;;;11.90;;
15608;SDS011;64278;45.642;13.756;2023-04-07T01:35:11;13.05;;;11.85;;
15608;SDS011;64278;45.642;13.756;2023-04-07T01:37:39;11.98;;;10.88;;
15608;SDS011;64278;45.642;13.756;2023-04-07T01:40:05;12.90;;;11.68;;
15608;SDS011;64278;45.642;13.756;2023-04-07T01:42:32;12.20;;;11.00;;
15608;SDS011;64278;45.642;13.756;2023-04-07T01:44:59;12.15;;;10.65;;
15608;SDS011;64278;45.642;13.756;2023-04-07T01:47:29;11.20;;;10.05;;
15608;SDS011;64278;45.642;13.756;2023-04-07T01:49:57;11.60;;;10.50;;
15608;SDS011;64278;45.642;13.756;2023-04-07T01:52:26;11.57;;;10.25;;
15608;SDS011;64278;45.642;13.756;2023-04-07T01:54:52;11.32;;;10.23;;
15608;SDS011;64278;45.642;13.756;2023-04-07T01:57:18;12.10;;;10.90;;
15608;SDS011;64278;45.642;13.756;2023-04-07T01:59:44;11.02;;;9.80;;
15608;SDS011;64278;45.642;13.756;2023-04-07T02:02:11;10.65;;;9.65;;
15608;SDS011;64278;45.642;13.756;2023-04-07T02:04:39;11.25;;;10.15;;
15608;SDS011;64278;45.642;13.756;2023-04-07T02:07:19;11.38;;;10.18;;
15608;SDS011;64278;45.642;13.756;2023-04-07T02:10:07;10.60;;;9.55;;
15608;SDS011;64278;45.642;13.756;2023-04-07T02:12:36;11.20;;;10.10;;
15608;SDS011;64278;45.642;13.756;2023-04-07T02:15:03;10.73;;;9.70;;
15608;SDS011;64278;45.642;13.756;2023-04-07T02:17:32;10.43;;;9.15;;
15608;SDS011;64278;45.642;13.756;2023-04-07T02:19:59;10.50;;;9.50;;
15608;SDS011;64278;45.642;13.756;2023-04-07T02:22:26;10.98;;;9.38;;
15608;SDS011;64278;45.642;13.756;2023-04-07T02:24:53;10.27;;;9.25;;
15608;SDS011;64278;45.642;13.756;2023-04-07T02:27:18;9.45;;;8.50;;
15608;SDS011;64278;45.642;13.756;2023-04-07T02:29:45;9.00;;;8.13;;
15608;SDS011;64278;45.642;13.756;2023-04-07T02:32:10;9.25;;;8.35;;
15608;SDS011;64278;45.642;13.756;2023-04-07T02:34:36;9.80;;;8.80;;
15608;SDS011;64278;45.642;13.756;2023-04-07T02:37:02;9.15;;;8.23;;
15608;SDS011;64278;45.642;13.756;2023-04-07T02:39:27;8.90;;;8.10;;
15608;SDS011;64278;45.642;13.756;2023-04-07T02:41:53;8.98;;;8.18;;
15608;SDS011;64278;45.642;13.756;2023-04-07T02:44:18;9.02;;;8.18;;
15608;SDS011;64278;45.642;13.756;2023-04-07T02:46:44;8.80;;;7.93;;
15608;SDS011;64278;45.642;13.756;2023-04-07T02:49:10;9.57;;;8.57;;
15608;SDS011;64278;45.642;13.756;2023-04-07T02:51:35;8.52;;;7.53;;
15608;SDS011;64278;45.642;13.756;2023-04-07T02:54:01;8.63;;;7.80;;
15608;SDS011;64278;45.642;13.756;2023-04-07T02:56:26;8.32;;;7.63;;
15608;SDS011;64278;45.642;13.756;2023-04-07T02:58:52;9.18;;;8.27;;
15608;SDS011;64278;45.642;13.756;2023-04-07T03:01:18;8.43;;;7.45;;
15608;SDS011;64278;45.642;13.756;2023-04-07T03:03:43;8.20;;;7.50;;
15608;SDS011;64278;45.642;13.756;2023-04-07T03:06:11;6.75;;;6.15;;
15608;SDS011;64278;45.642;13.756;2023-04-07T03:08:37;8.48;;;6.70;;
15608;SDS011;64278;45.642;13.756;2023-04-07T03:11:03;7.55;;;6.85;;
15608;SDS011;64278;45.642;13.756;2023-04-07T03:13:28;7.80;;;7.10;;
15608;SDS011;64278;45.642;13.756;2023-04-07T03:15:55;7.10;;;6.47;;
15608;SDS011;64278;45.642;13.756;2023-04-07T03:18:22;7.28;;;6.60;;
15608;SDS011;64278;45.642;13.756;2023-04-07T03:20:47;7.43;;;6.72;;
15608;SDS011;64278;45.642;13.756;2023-04-07T03:23:13;6.60;;;6.00;;
15608;SDS011;64278;45.642;13.756;2023-04-07T03:25:39;7.05;;;6.38;;
15608;SDS011;64278;45.642;13.756;2023-04-07T03:28:05;6.85;;;6.25;;
15608;SDS011;64278;45.642;13.756;2023-04-07T03:30:31;7.05;;;6.45;;
15608;SDS011;64278;45.642;13.756;2023-04-07T03:32:57;6.45;;;5.85;;
15608;SDS011;64278;45.642;13.756;2023-04-07T03:35:22;6.50;;;5.90;;
15608;SDS011;64278;45.642;13.756;2023-04-07T03:37:48;7.25;;;6.40;;
15608;SDS011;64278;45.642;13.756;2023-04-07T03:40:14;6.22;;;5.72;;
15608;SDS011;64278;45.642;13.756;2023-04-07T03:42:40;7.22;;;6.63;;
15608;SDS011;64278;45.642;13.756;2023-04-07T03:45:05;7.72;;;6.97;;
15608;SDS011;64278;45.642;13.756;2023-04-07T03:47:31;6.30;;;5.78;;
15608;SDS011;64278;45.642;13.756;2023-04-07T03:49:57;6.30;;;5.80;;
15608;SDS011;64278;45.642;13.756;2023-04-07T03:52:23;6.90;;;5.90;;
15608;SDS011;64278;45.642;13.756;2023-04-07T03:54:48;6.55;;;5.95;;
15608;SDS011;64278;45.642;13.756;2023-04-07T03:57:14;6.35;;;5.75;;
15608;SDS011;64278;45.642;13.756;2023-04-07T03:59:40;5.53;;;5.03;;
15608;SDS011;64278;45.642;13.756;2023-04-07T04:02:06;6.30;;;5.70;;
15608;SDS011;64278;45.642;13.756;2023-04-07T04:04:31;5.75;;;5.25;;
15608;SDS011;64278;45.642;13.756;2023-04-07T04:06:57;5.68;;;5.18;;
15608;SDS011;64278;45.642;13.756;2023-04-07T04:09:22;5.82;;;5.22;;
15608;SDS011;64278;45.642;13.756;2023-04-07T04:11:48;5.22;;;4.72;;
15608;SDS011;64278;45.642;13.756;2023-04-07T04:14:14;5.70;;;5.20;;
15608;SDS011;64278;45.642;13.756;2023-04-07T04:16:40;6.43;;;5.68;;
15608;SDS011;64278;45.642;13.756;2023-04-07T04:19:07;6.20;;;5.60;;
15608;SDS011;64278;45.642;13.756;2023-04-07T04:21:32;5.55;;;5.05;;
15608;SDS011;64278;45.642;13.756;2023-04-07T04:23:58;6.13;;;5.63;;
15608;SDS011;64278;45.642;13.756;2023-04-07T04:26:24;5.63;;;5.13;;
15608;SDS011;64278;45.642;13.756;2023-04-07T04:28:50;5.80;;;5.30;;
15608;SDS011;64278;45.642;13.756;2023-04-07T04:31:16;5.32;;;4.82;;
15608;SDS011;64278;45.642;13.756;2023-04-07T04:33:42;5.68;;;5.18;;
15608;SDS011;64278;45.642;13.756;2023-04-07T04:36:08;5.47;;;4.97;;
15608;SDS011;64278;45.642;13.756;2023-04-07T04:38:34;5.00;;;4.57;;
15608;SDS011;64278;45.642;13.756;2023-04-07T04:40:59;5.05;;;4.63;;
15608;SDS011;64278;45.642;13.756;2023-04-07T04:43:25;5.40;;;4.90;;
15608;SDS011;64278;45.642;13.756;2023-04-07T04:45:51;5.03;;;4.63;;
15608;SDS011;64278;45.642;13.756;2023-04-07T04:48:16;5.68;;;4.47;;
15608;SDS011;64278;45.642;13.756;2023-04-07T04:50:42;4.97;;;4.47;;
15608;SDS011;64278;45.642;13.756;2023-04-07T04:53:08;5.00;;;4.57;;
15608;SDS011;64278;45.642;13.756;2023-04-07T04:55:34;5.15;;;4.70;;
15608;SDS011;64278;45.642;13.756;2023-04-07T04:58:00;4.75;;;4.35;;
15608;SDS011;64278;45.642;13.756;2023-04-07T05:00:26;4.97;;;4.47;;
15608;SDS011;64278;45.642;13.756;2023-04-07T05:02:52;5.18;;;4.47;;
15608;SDS011;64278;45.642;13.756;2023-04-07T05:05:17;4.72;;;4.32;;
15608;SDS011;64278;45.642;13.756;2023-04-07T05:07:43;4.97;;;4.50;;
15608;SDS011;64278;45.642;13.756;2023-04-07T05:10:09;5.35;;;4.60;;
15608;SDS011;64278;45.642;13.756;2023-04-07T05:12:35;5.13;;;4.68;;
15608;SDS011;64278;45.642;13.756;2023-04-07T05:15:01;4.43;;;4.03;;
15608;SDS011;64278;45.642;13.756;2023-04-07T05:17:26;4.03;;;3.72;;
15608;SDS011;64278;45.642;13.756;2023-04-07T05:19:52;4.38;;;4.00;;
15608;SDS011;64278;45.642;13.756;2023-04-07T05:22:18;5.13;;;4.57;;
15608;SDS011;64278;45.642;13.756;2023-04-07T05:24:43;4.90;;;4.45;;
15608;SDS011;64278;45.642;13.756;2023-04-07T05:27:09;4.60;;;4.20;;
15608;SDS011;64278;45.642;13.756;2023-04-07T05:29:35;4.50;;;4.10;;
15608;SDS011;64278;45.642;13.756;2023-04-07T05:32:00;4.30;;;3.95;;
15608;SDS011;64278;45.642;13.756;2023-04-07T05:34:26;3.80;;;3.50;;
15608;SDS011;64278;45.642;13.756;2023-04-07T05:36:52;4.43;;;4.03;;
15608;SDS011;64278;45.642;13.756;2023-04-07T05:39:18;4.30;;;3.90;;
15608;SDS011;64278;45.642;13.756;2023-04-07T05:41:43;4.63;;;4.05;;
15608;SDS011;64278;45.642;13.756;2023-04-07T05:44:09;3.58;;;3.30;;
15608;SDS011;64278;45.642;13.756;2023-04-07T05:46:35;4.32;;;3.92;;
15608;SDS011;64278;45.642;13.756;2023-04-07T05:49:01;4.05;;;3.75;;
15608;SDS011;64278;45.642;13.756;2023-04-07T05:51:27;5.18;;;4.55;;
15608;SDS011;64278;45.642;13.756;2023-04-07T05:53:53;3.47;;;3.22;;
15608;SDS011;64278;45.642;13.756;2023-04-07T05:56:19;5.15;;;3.97;;
15608;SDS011;64278;45.642;13.756;2023-04-07T05:58:45;4.32;;;3.92;;
15608;SDS011;64278;45.642;13.756;2023-04-07T06:01:11;4.13;;;3.75;;
15608;SDS011;64278;45.642;13.756;2023-04-07T06:03:37;5.03;;;3.72;;
15608;SDS011;64278;45.642;13.756;2023-04-07T06:06:04;4.05;;;3.60;;
15608;SDS011;64278;45.642;13.756;2023-04-07T06:08:30;4.45;;;4.05;;
15608;SDS011;64278;45.642;13.756;2023-04-07T06:10:56;3.83;;;3.53;;
15608;SDS011;64278;45.642;13.756;2023-04-07T06:13:21;3.90;;;3.60;;
15608;SDS011;64278;45.642;13.756;2023-04-07T06:15:47;3.95;;;3.65;;
15608;SDS011;64278;45.642;13.756;2023-04-07T06:18:13;5.32;;;3.45;;
15608;SDS011;64278;45.642;13.756;2023-04-07T06:20:38;4.30;;;3.72;;
15608;SDS011;64278;45.642;13.756;2023-04-07T06:23:04;4.68;;;3.65;;
15608;SDS011;64278;45.642;13.756;2023-04-07T06:25:30;3.70;;;3.35;;
15608;SDS011;64278;45.642;13.756;2023-04-07T06:27:56;3.53;;;3.22;;
15608;SDS011;64278;45.642;13.756;2023-04-07T06:30:21;4.25;;;3.88;;
15608;SDS011;64278;45.642;13.756;2023-04-07T06:32:47;3.85;;;3.50;;
15608;SDS011;64278;45.642;13.756;2023-04-07T06:35:13;3.88;;;3.30;;
15608;SDS011;64278;45.642;13.756;2023-04-07T06:37:39;3.58;;;3.28;;
15608;SDS011;64278;45.642;13.756;2023-04-07T06:40:05;3.53;;;3.22;;
15608;SDS011;64278;45.642;13.756;2023-04-07T06:42:32;3.65;;;3.30;;
15608;SDS011;64278;45.642;13.756;2023-04-07T06:44:57;3.83;;;3.53;;
15608;SDS011;64278;45.642;13.756;2023-04-07T06:47:23;3.55;;;3.25;;
15608;SDS011;64278;45.642;13.756;2023-04-07T06:49:48;4.30;;;4.00;;
15608;SDS011;64278;45.642;13.756;2023-04-07T06:52:14;5.05;;;4.40;;
15608;SDS011;64278;45.642;13.756;2023-04-07T06:54:40;5.43;;;4.93;;
15608;SDS011;64278;45.642;13.756;2023-04-07T06:57:05;5.28;;;4.78;;
15608;SDS011;64278;45.642;13.756;2023-04-07T06:59:36;7.30;;;6.20;;
15608;SDS011;64278;45.642;13.756;2023-04-07T07:02:02;6.85;;;6.25;;
15608;SDS011;64278;45.642;13.756;2023-04-07T07:04:28;6.88;;;6.25;;
15608;SDS011;64278;45.642;13.756;2023-04-07T07:06:53;6.25;;;5.75;;
15608;SDS011;64278;45.642;13.756;2023-04-07T07:09:20;7.22;;;6.47;;
15608;SDS011;64278;45.642;13.756;2023-04-07T07:11:46;6.90;;;6.28;;
15608;SDS011;64278;45.642;13.756;2023-04-07T07:14:11;7.22;;;6.63;;
15608;SDS011;64278;45.642;13.756;2023-04-07T07:16:37;7.38;;;6.70;;
15608;SDS011;64278;45.642;13.756;2023-04-07T07:19:03;6.97;;;5.80;;
15608;SDS011;64278;45.642;13.756;2023-04-07T07:21:29;6.93;;;6.10;;
15608;SDS011;64278;45.642;13.756;2023-04-07T07:23:55;7.47;;;6.88;;
15608;SDS011;64278;45.642;13.756;2023-04-07T07:26:21;6.78;;;6.07;;
15608;SDS011;64278;45.642;13.756;2023-04-07T07:28:47;7.68;;;6.90;;
15608;SDS011;64278;45.642;13.756;2023-04-07T07:31:12;7.00;;;6.40;;
15608;SDS011;64278;45.642;13.756;2023-04-07T07:33:39;6.30;;;5.70;;
15608;SDS011;64278;45.642;13.756;2023-04-07T07:36:07;6.57;;;5.35;;
15608;SDS011;64278;45.642;13.756;2023-04-07T07:38:34;6.50;;;6.00;;
15608;SDS011;64278;45.642;13.756;2023-04-07T07:41:00;6.15;;;5.65;;
15608;SDS011;64278;45.642;13.756;2023-04-07T07:43:26;6.22;;;5.63;;
15608;SDS011;64278;45.642;13.756;2023-04-07T07:45:51;6.55;;;5.95;;
15608;SDS011;64278;45.642;13.756;2023-04-07T07:48:17;5.70;;;5.20;;
15608;SDS011;64278;45.642;13.756;2023-04-07T07:50:43;8.23;;;6.25;;
15608;SDS011;64278;45.642;13.756;2023-04-07T07:53:08;10.20;;;7.72;;
15608;SDS011;64278;45.642;13.756;2023-04-07T07:55:34;9.80;;;8.80;;
15608;SDS011;64278;45.642;13.756;2023-04-07T07:58:00;10.52;;;9.20;;
15608;SDS011;64278;45.642;13.756;2023-04-07T08:00:26;12.25;;;10.35;;
15608;SDS011;64278;45.642;13.756;2023-04-07T08:02:52;12.18;;;10.13;;
15608;SDS011;64278;45.642;13.756;2023-04-07T08:05:18;14.02;;;10.77;;
15608;SDS011;64278;45.642;13.756;2023-04-07T08:07:44;12.30;;;10.68;;
15608;SDS011;64278;45.642;13.756;2023-04-07T08:10:10;12.55;;;11.07;;
15608;SDS011;64278;45.642;13.756;2023-04-07T08:12:37;11.27;;;10.18;;
15608;SDS011;64278;45.642;13.756;2023-04-07T08:15:03;15.05;;;10.45;;
15608;SDS011;64278;45.642;13.756;2023-04-07T08:17:30;12.50;;;11.30;;
15608;SDS011;64278;45.642;13.756;2023-04-07T08:19:56;11.55;;;10.40;;
15608;SDS011;64278;45.642;13.756;2023-04-07T08:22:21;13.40;;;10.52;;
15608;SDS011;64278;45.642;13.756;2023-04-07T08:24:47;12.35;;;11.05;;
15608;SDS011;64278;45.642;13.756;2023-04-07T08:27:13;11.65;;;10.32;;
15608;SDS011;64278;45.642;13.756;2023-04-07T08:29:38;11.23;;;10.10;;
15608;SDS011;64278;45.642;13.756;2023-04-07T08:32:04;12.43;;;10.70;;
15608;SDS011;64278;45.642;13.756;2023-04-07T08:34:30;11.57;;;10.38;;
15608;SDS011;64278;45.642;13.756;2023-04-07T08:36:56;11.90;;;9.48;;
15608;SDS011;64278;45.642;13.756;2023-04-07T08:39:22;12.48;;;8.98;;
15608;SDS011;64278;45.642;13.756;2023-04-07T08:41:49;12.27;;;9.18;;
15608;SDS011;64278;45.642;13.756;2023-04-07T08:44:16;10.32;;;9.32;;
15608;SDS011;64278;45.642;13.756;2023-04-07T08:46:45;10.25;;;8.38;;
15608;SDS011;64278;45.642;13.756;2023-04-07T08:49:13;9.90;;;7.80;;
15608;SDS011;64278;45.642;13.756;2023-04-07T08:51:45;7.43;;;6.30;;
15608;SDS011;64278;45.642;13.756;2023-04-07T08:54:12;7.63;;;5.97;;
15608;SDS011;64278;45.642;13.756;2023-04-07T08:56:40;9.00;;;5.70;;
15608;SDS011;64278;45.642;13.756;2023-04-07T08:59:08;9.18;;;6.43;;
15608;SDS011;64278;45.642;13.756;2023-04-07T09:01:36;8.68;;;6.28;;
15608;SDS011;64278;45.642;13.756;2023-04-07T09:04:02;7.80;;;5.80;;
15608;SDS011;64278;45.642;13.756;2023-04-07T09:06:30;12.48;;;8.98;;
15608;SDS011;64278;45.642;13.756;2023-04-07T09:08:58;8.57;;;7.68;;
15608;SDS011;64278;45.642;13.756;2023-04-07T09:11:27;7.20;;;6.47;;
15608;SDS011;64278;45.642;13.756;2023-04-07T09:13:54;7.40;;;5.60;;
15608;SDS011;64278;45.642;13.756;2023-04-07T09:16:21;6.57;;;5.88;;
15608;SDS011;64278;45.642;13.756;2023-04-07T09:18:48;6.20;;;5.60;;
15608;SDS011;64278;45.642;13.756;2023-04-07T09:21:13;6.88;;;5.20;;
15608;SDS011;64278;45.642;13.756;2023-04-07T09:23:40;5.72;;;5.10;;
15608;SDS011;64278;45.642;13.756;2023-04-07T09:26:25;8.07;;;5.32;;
15608;SDS011;64278;45.642;13.756;2023-04-07T09:28:58;5.85;;;4.97;;
15608;SDS011;64278;45.642;13.756;2023-04-07T09:31:43;6.55;;;4.90;;
15608;SDS011;64278;45.642;13.756;2023-04-07T09:34:25;5.80;;;5.10;;
15608;SDS011;64278;45.642;13.756;2023-04-07T09:36:52;8.75;;;5.53;;
15608;SDS011;64278;45.642;13.756;2023-04-07T09:39:18;6.03;;;4.05;;
15608;SDS011;64278;45.642;13.756;2023-04-07T09:41:44;5.60;;;4.55;;
15608;SDS011;64278;45.642;13.756;2023-04-07T09:44:10;5.35;;;3.95;;
15608;SDS011;64278;45.642;13.756;2023-04-07T09:46:47;4.93;;;4.32;;
15608;SDS011;64278;45.642;13.756;2023-04-07T09:49:13;4.55;;;3.95;;
15608;SDS011;64278;45.642;13.756;2023-04-07T09:51:46;5.43;;;4.22;;
15608;SDS011;64278;45.642;13.756;2023-04-07T09:54:41;5.10;;;4.50;;
15608;SDS011;64278;45.642;13.756;2023-04-07T09:57:07;4.38;;;3.95;;
15608;SDS011;64278;45.642;13.756;2023-04-07T09:59:36;6.68;;;4.85;;
15608;SDS011;64278;45.642;13.756;2023-04-07T10:02:03;6.15;;;4.50;;
15608;SDS011;64278;45.642;13.756;2023-04-07T10:04:30;7.13;;;4.60;;
15608;SDS011;64278;45.642;13.756;2023-04-07T10:06:56;4.90;;;4.40;;
15608;SDS011;64278;45.642;13.756;2023-04-07T10:09:24;4.93;;;4.43;;
15608;SDS011;64278;45.642;13.756;2023-04-07T10:11:53;5.72;;;4.43;;
15608;SDS011;64278;45.642;13.756;2023-04-07T10:14:21;5.22;;;4.15;;
15608;SDS011;64278;45.642;13.756;2023-04-07T10:16:55;5.38;;;4.05;;
15608;SDS011;64278;45.642;13.756;2023-04-07T10:19:23;5.40;;;4.03;;
15608;SDS011;64278;45.642;13.756;2023-04-07T10:21:53;6.18;;;3.90;;
15608;SDS011;64278;45.642;13.756;2023-04-07T10:24:41;5.95;;;4.43;;
15608;SDS011;64278;45.642;13.756;2023-04-07T10:27:16;3.90;;;3.60;;
15608;SDS011;64278;45.642;13.756;2023-04-07T10:29:53;4.50;;;4.10;;
15608;SDS011;64278;45.642;13.756;2023-04-07T10:32:21;4.07;;;3.60;;
15608;SDS011;64278;45.642;13.756;2023-04-07T10:37:19;5.82;;;4.15;;
15608;SDS011;64278;45.642;13.756;2023-04-07T10:40:32;4.05;;;3.72;;
15608;SDS011;64278;45.642;13.756;2023-04-07T10:42:51;3.83;;;3.53;;
15608;SDS011;64278;45.642;13.756;2023-04-07T10:45:17;4.45;;;3.53;;
15608;SDS011;64278;45.642;13.756;2023-04-07T10:48:23;6.72;;;6.00;;
15608;SDS011;64278;45.642;13.756;2023-04-07T10:51:11;9.77;;;8.68;;
15608;SDS011;64278;45.642;13.756;2023-04-07T10:54:00;21.75;;;18.08;;
15608;SDS011;64278;45.642;13.756;2023-04-07T10:59:35;22.73;;;20.13;;
15608;SDS011;64278;45.642;13.756;2023-04-07T11:04:42;23.75;;;21.23;;
15608;SDS011;64278;45.642;13.756;2023-04-07T11:07:09;22.67;;;19.95;;
15608;SDS011;64278;45.642;13.756;2023-04-07T11:09:41;19.92;;;17.85;;
15608;SDS011;64278;45.642;13.756;2023-04-07T11:12:07;25.55;;;22.98;;
15608;SDS011;64278;45.642;13.756;2023-04-07T11:14:33;27.15;;;24.30;;
15608;SDS011;64278;45.642;13.756;2023-04-07T11:17:02;27.05;;;23.83;;
15608;SDS011;64278;45.642;13.756;2023-04-07T11:19:28;29.35;;;26.40;;
15608;SDS011;64278;45.642;13.756;2023-04-07T11:22:14;29.15;;;25.58;;
15608;SDS011;64278;45.642;13.756;2023-04-07T11:24:41;32.38;;;27.00;;
15608;SDS011;64278;45.642;13.756;2023-04-07T11:27:13;32.05;;;26.25;;
15608;SDS011;64278;45.642;13.756;2023-04-07T11:29:39;23.58;;;19.90;;
15608;SDS011;64278;45.642;13.756;2023-04-07T11:32:05;24.90;;;21.25;;
15608;SDS011;64278;45.642;13.756;2023-04-07T11:34:32;20.27;;;18.13;;
15608;SDS011;64278;45.642;13.756;2023-04-07T11:39:53;21.88;;;16.73;;
15608;SDS011;64278;45.642;13.756;2023-04-07T11:42:32;20.80;;;15.73;;
15608;SDS011;64278;45.642;13.756;2023-04-07T11:44:59;15.40;;;13.80;;
15608;SDS011;64278;45.642;13.756;2023-04-07T11:47:37;16.13;;;13.63;;
15608;SDS011;64278;45.642;13.756;2023-04-07T11:50:04;20.38;;;13.45;;
15608;SDS011;64278;45.642;13.756;2023-04-07T11:52:43;20.10;;;15.30;;
15608;SDS011;64278;45.642;13.756;2023-04-07T11:55:18;17.33;;;13.32;;
15608;SDS011;64278;45.642;13.756;2023-04-07T11:57:45;15.98;;;14.30;;
15608;SDS011;64278;45.642;13.756;2023-04-07T12:00:12;14.20;;;12.63;;
15608;SDS011;64278;45.642;13.756;2023-04-07T12:02:38;12.90;;;11.75;;
15608;SDS011;64278;45.642;13.756;2023-04-07T12:05:04;14.88;;;11.57;;
15608;SDS011;64278;45.642;13.756;2023-04-07T12:07:30;13.45;;;12.15;;
15608;SDS011;64278;45.642;13.756;2023-04-07T12:09:57;13.55;;;12.15;;
15608;SDS011;64278;45.642;13.756;2023-04-07T12:12:29;13.10;;;11.88;;
15608;SDS011;64278;45.642;13.756;2023-04-07T12:14:57;13.68;;;12.40;;
15608;SDS011;64278;45.642;13.756;2023-04-07T12:17:23;13.35;;;12.02;;
15608;SDS011;64278;45.642;13.756;2023-04-07T12:19:50;13.35;;;11.82;;
15608;SDS011;64278;45.642;13.756;2023-04-07T12:22:16;14.85;;;11.93;;
15608;SDS011;64278;45.642;13.756;2023-04-07T12:24:42;14.70;;;13.20;;
15608;SDS011;64278;45.642;13.756;2023-04-07T12:27:08;12.82;;;11.48;;
15608;SDS011;64278;45.642;13.756;2023-04-07T12:29:34;13.30;;;12.00;;
15608;SDS011;64278;45.642;13.756;2023-04-07T12:32:01;13.88;;;12.40;;
15608;SDS011;64278;45.642;13.756;2023-04-07T12:34:27;17.27;;;12.77;;
15608;SDS011;64278;45.642;13.756;2023-04-07T12:36:53;13.32;;;11.93;;
15608;SDS011;64278;45.642;13.756;2023-04-07T12:39:19;13.00;;;11.65;;
15608;SDS011;64278;45.642;13.756;2023-04-07T12:41:45;14.40;;;13.00;;
15608;SDS011;64278;45.642;13.756;2023-04-07T12:44:12;13.98;;;12.60;;
15608;SDS011;64278;45.642;13.756;2023-04-07T12:46:39;13.93;;;12.45;;
15608;SDS011;64278;45.642;13.756;2023-04-07T12:49:05;15.07;;;13.57;;
15608;SDS011;64278;45.642;13.756;2023-04-07T12:51:31;14.52;;;13.02;;
15608;SDS011;64278;45.642;13.756;2023-04-07T12:53:57;14.02;;;12.63;;
15608;SDS011;64278;45.642;13.756;2023-04-07T12:56:24;13.32;;;12.00;;
15608;SDS011;64278;45.642;13.756;2023-04-07T12:58:51;12.75;;;11.48;;
15608;SDS011;64278;45.642;13.756;2023-04-07T13:01:17;13.68;;;12.38;;
15608;SDS011;64278;45.642;13.756;2023-04-07T13:03:43;14.82;;;13.40;;
15608;SDS011;64278;45.642;13.756;2023-04-07T13:06:08;13.95;;;12.65;;
15608;SDS011;64278;45.642;13.756;2023-04-07T13:08:34;12.75;;;11.45;;
15608;SDS011;64278;45.642;13.756;2023-04-07T13:11:00;13.25;;;11.60;;
15608;SDS011;64278;45.642;13.756;2023-04-07T13:13:26;12.32;;;11.13;;
15608;SDS011;64278;45.642;13.756;2023-04-07T13:15:52;13.27;;;11.25;;
15608;SDS011;64278;45.642;13.756;2023-04-07T13:18:18;11.57;;;10.38;;
15608;SDS011;64278;45.642;13.756;2023-04-07T13:20:44;12.00;;;10.75;;
15608;SDS011;64278;45.642;13.756;2023-04-07T13:23:10;11.38;;;10.02;;
15608;SDS011;64278;45.642;13.756;2023-04-07T13:25:36;11.48;;;10.20;;
15608;SDS011;64278;45.642;13.756;2023-04-07T13:28:01;11.65;;;9.80;;
15608;SDS011;64278;45.642;13.756;2023-04-07T13:30:27;11.00;;;9.90;;
15608;SDS011;64278;45.642;13.756;2023-04-07T13:32:53;11.55;;;9.25;;
15608;SDS011;64278;45.642;13.756;2023-04-07T13:35:19;11.82;;;9.02;;
15608;SDS011;64278;45.642;13.756;2023-04-07T13:37:45;10.43;;;9.60;;
15608;SDS011;64278;45.642;13.756;2023-04-07T13:40:10;11.18;;;8.70;;
15608;SDS011;64278;45.642;13.756;2023-04-07T13:42:39;9.70;;;8.80;;
15608;SDS011;64278;45.642;13.756;2023-04-07T13:45:05;10.50;;;8.07;;
15608;SDS011;64278;45.642;13.756;2023-04-07T13:47:31;8.82;;;8.02;;
15608;SDS011;64278;45.642;13.756;2023-04-07T13:50:01;9.95;;;8.93;;
15608;SDS011;64278;45.642;13.756;2023-04-07T13:52:28;8.55;;;7.75;;
15608;SDS011;64278;45.642;13.756;2023-04-07T13:54:54;8.60;;;7.70;;
15608;SDS011;64278;45.642;13.756;2023-04-07T13:57:20;9.10;;;8.20;;
15608;SDS011;64278;45.642;13.756;2023-04-07T13:59:47;10.95;;;8.25;;
15608;SDS011;64278;45.642;13.756;2023-04-07T14:02:16;7.78;;;7.07;;
15608;SDS011;64278;45.642;13.756;2023-04-07T14:04:44;8.35;;;7.63;;
15608;SDS011;64278;45.642;13.756;2023-04-07T14:07:10;10.65;;;8.48;;
15608;SDS011;64278;45.642;13.756;2023-04-07T14:09:35;9.52;;;8.13;;
15608;SDS011;64278;45.642;13.756;2023-04-07T14:12:01;8.55;;;7.65;;
15608;SDS011;64278;45.642;13.756;2023-04-07T14:14:27;8.20;;;7.50;;
15608;SDS011;64278;45.642;13.756;2023-04-07T14:16:53;8.30;;;7.50;;
15608;SDS011;64278;45.642;13.756;2023-04-07T14:19:19;8.32;;;7.53;;
15608;SDS011;64278;45.642;13.756;2023-04-07T14:21:51;8.82;;;7.30;;
15608;SDS011;64278;45.642;13.756;2023-04-07T14:24:17;8.55;;;7.65;;
15608;SDS011;64278;45.642;13.756;2023-04-07T14:26:43;8.23;;;7.32;;
15608;SDS011;64278;45.642;13.756;2023-04-07T14:29:10;8.10;;;7.40;;
15608;SDS011;64278;45.642;13.756;2023-04-07T14:31:37;8.00;;;7.20;;
15608;SDS011;64278;45.642;13.756;2023-04-07T14:34:03;8.32;;;7.22;;
15608;SDS011;64278;45.642;13.756;2023-04-07T14:36:29;10.10;;;7.65;;
15608;SDS011;64278;45.642;13.756;2023-04-07T14:38:55;9.23;;;8.27;;
15608;SDS011;64278;45.642;13.756;2023-04-07T14:41:21;10.77;;;9.68;;